Alpine, Arkansas
Current Conditions -  °F | °C
As of 6:56 PM on Sunday 23 Nov 2014 (Local Time) from KADF Reporting Station
Clear Clear  
Wind Chill: 60°   Ceiling: Unl
Heat Index: 60°   Visibility: 10mi
Dew Point: 60°   Wind: 5mph
Humidity: 100%   Direction: 190°S
Pressure: 29.43"   Gusts: NA
Location:  34.23°N, 93.38°W
Report Text: KADF 240056Z AUTO 19004KT 10SM CLR 16/16 A2943 RMK AO2 T01550155 SLP978
Loading
Personal Weather Stations






























Interactive Weather Map New forecast layout! Learn more

10-Day Weather Forecast

Advertisements
Track Severe Weather on mobile